Time;durP1;ratioP1;P1;durP2;ratioP2;P2;SDS_P1;SDS_P2;PMS_P1;PMS_P2;Temp;Humidity;BMP_temperature;BMP_pressure;BME280_temperature;BME280_humidity;BME280_pressure;Samples;Min_cycle;Max_cycle;Signal;HPM_P1;HPM_P2
2024/01/17 00:01:30;;;;;;;20.38;15.27;;;-1.00;99.90;;;;;;5073732;28;20688;-71
2024/01/17 00:03:56;;;;;;;16.77;14.90;;;-1.10;99.90;;;;;;5073618;28;20190;-81
2024/01/17 00:06:21;;;;;;;19.07;12.90;;;-1.10;99.90;;;;;;5072181;28;20651;-80
2024/01/17 00:08:47;;;;;;;20.00;15.00;;;-1.10;99.90;;;;;;5072131;28;20194;-81
2024/01/17 00:11:12;;;;;;;19.47;14.63;;;-1.10;99.90;;;;;;5073541;28;20198;-71
2024/01/17 00:13:38;;;;;;;17.70;13.47;;;-1.10;99.90;;;;;;5072494;28;20273;-81
2024/01/17 00:16:04;;;;;;;17.43;14.50;;;-1.20;99.90;;;;;;5072473;28;20227;-81
2024/01/17 00:18:30;;;;;;;19.17;14.45;;;-1.20;99.90;;;;;;5073524;28;20236;-80
2024/01/17 00:20:56;;;;;;;13.43;12.03;;;-1.20;99.90;;;;;;5073504;28;20166;-70
2024/01/17 00:23:22;;;;;;;21.52;15.23;;;-1.20;99.90;;;;;;5072764;28;20178;-80
2024/01/17 00:25:47;;;;;;;25.20;14.77;;;-1.30;99.90;;;;;;5072463;28;20217;-77
2024/01/17 00:28:14;;;;;;;18.37;15.00;;;-1.30;99.90;;;;;;5073141;28;20185;-77
2024/01/17 00:30:39;;;;;;;17.83;14.75;;;-1.30;99.90;;;;;;5073341;28;20590;-78
2024/01/17 00:33:05;;;;;;;20.37;15.97;;;-1.40;99.90;;;;;;5071837;28;20205;-71
2024/01/17 00:35:31;;;;;;;19.93;14.80;;;-1.30;99.90;;;;;;5071060;28;20237;-72
2024/01/17 00:37:56;;;;;;;23.40;16.43;;;-1.30;99.90;;;;;;5073220;28;20235;-78
2024/01/17 00:40:22;;;;;;;24.10;16.17;;;-1.20;99.90;;;;;;5071783;28;20201;-80
2024/01/17 00:42:49;;;;;;;14.93;12.60;;;-1.30;99.90;;;;;;5072868;28;20158;-81
2024/01/17 00:45:14;;;;;;;20.98;14.50;;;-1.20;99.90;;;;;;5072250;28;20245;-71
2024/01/17 00:47:40;;;;;;;21.33;14.83;;;-1.20;99.90;;;;;;5073164;28;20269;-71
2024/01/17 00:50:06;;;;;;;17.13;12.80;;;-1.20;99.90;;;;;;5071786;28;20208;-70
2024/01/17 00:52:32;;;;;;;20.40;17.53;;;-1.30;99.90;;;;;;5071734;28;20166;-72
2024/01/17 00:54:58;;;;;;;17.83;15.53;;;-1.30;99.90;;;;;;5072212;28;20493;-70
2024/01/17 00:57:24;;;;;;;22.50;15.05;;;-1.30;99.90;;;;;;5072217;28;20197;-72
2024/01/17 00:59:49;;;;;;;19.70;14.47;;;-1.30;99.90;;;;;;5072995;28;20308;-81
2024/01/17 01:02:15;;;;;;;15.90;14.20;;;-1.20;99.90;;;;;;5072988;28;20177;-71
2024/01/17 01:04:41;;;;;;;23.27;15.37;;;-1.20;99.90;;;;;;5070857;28;20174;-72
2024/01/17 01:07:06;;;;;;;16.17;13.00;;;-1.30;99.90;;;;;;5072855;28;20186;-70
2024/01/17 01:09:32;;;;;;;15.80;12.87;;;-1.30;99.90;;;;;;5072955;28;20254;-80
2024/01/17 01:11:58;;;;;;;16.90;12.67;;;-1.30;99.90;;;;;;5072858;28;20174;-79
2024/01/17 01:14:23;;;;;;;22.60;15.07;;;-1.30;99.90;;;;;;5072275;28;20158;-78
2024/01/17 01:16:49;;;;;;;22.70;16.40;;;-1.30;99.90;;;;;;5071718;28;20723;-79
2024/01/17 01:19:15;;;;;;;18.00;12.90;;;-1.30;99.90;;;;;;5071551;28;20208;-80
2024/01/17 01:21:42;;;;;;;18.35;15.25;;;-1.30;99.90;;;;;;5073984;28;20409;-80
2024/01/17 01:24:08;;;;;;;21.65;15.57;;;-1.30;99.90;;;;;;5076828;28;20257;-80
2024/01/17 01:26:35;;;;;;;21.50;17.63;;;-1.30;99.90;;;;;;5075661;28;20249;-75
2024/01/17 01:29:01;;;;;;;15.10;13.60;;;-1.30;99.90;;;;;;5076627;28;20448;-71
2024/01/17 01:31:27;;;;;;;26.33;14.73;;;-1.20;99.90;;;;;;5076698;28;20202;-81
2024/01/17 01:33:52;;;;;;;22.17;14.43;;;-1.30;99.90;;;;;;5076563;28;20407;-69
2024/01/17 01:36:19;;;;;;;20.43;16.50;;;-1.30;99.90;;;;;;5074770;28;20205;-81
2024/01/17 01:38:45;;;;;;;18.02;15.20;;;-1.30;99.90;;;;;;5076321;28;20183;-80
2024/01/17 01:41:10;;;;;;;22.50;14.50;;;-1.30;99.90;;;;;;5076321;28;20182;-74
2024/01/17 01:43:36;;;;;;;21.33;13.67;;;-1.20;99.90;;;;;;5076453;28;20166;-80
2024/01/17 01:46:23;;;;;;;30.83;16.70;;;-1.20;99.90;;;;;;5075521;28;20531;-70
2024/01/17 01:48:50;;;;;;;26.05;16.17;;;-1.20;99.90;;;;;;5076078;28;20189;-80
2024/01/17 01:51:16;;;;;;;20.15;15.57;;;-1.20;99.90;;;;;;5076237;28;20217;-76
2024/01/17 01:53:44;;;;;;;26.30;14.18;;;-1.20;99.90;;;;;;5075624;28;20207;-73
2024/01/17 01:56:18;;;;;;;20.02;13.85;;;-1.20;99.90;;;;;;5074963;28;20190;-78
2024/01/17 01:58:48;;;;;;;22.85;15.27;;;-1.20;99.90;;;;;;5074972;28;20205;-78
2024/01/17 02:01:16;;;;;;;29.02;16.02;;;-1.20;99.90;;;;;;5076128;28;20527;-78
2024/01/17 02:03:43;;;;;;;14.57;11.73;;;-1.10;99.90;;;;;;5076154;28;20173;-70
2024/01/17 02:06:12;;;;;;;17.63;14.55;;;-1.10;99.90;;;;;;5074925;28;20174;-80
2024/01/17 02:08:38;;;;;;;13.45;12.23;;;-1.10;99.90;;;;;;5075814;28;20191;-80
2024/01/17 02:11:03;;;;;;;24.00;14.13;;;-1.10;99.90;;;;;;5075453;28;20718;-73
2024/01/17 02:13:29;;;;;;;16.07;14.37;;;-1.10;99.90;;;;;;5075597;28;20648;-76
2024/01/17 02:15:56;;;;;;;22.75;16.15;;;-1.10;99.90;;;;;;5074827;28;20444;-79
2024/01/17 02:18:22;;;;;;;14.15;11.43;;;-1.10;99.90;;;;;;5075664;28;20218;-80
2024/01/17 02:20:48;;;;;;;18.13;14.48;;;-1.10;99.90;;;;;;5075622;28;20265;-72
2024/01/17 02:23:27;;;;;;;16.00;13.10;;;-1.00;99.90;;;;;;5075619;28;20245;-78
2024/01/17 02:25:57;;;;;;;27.55;15.95;;;-0.90;99.90;;;;;;5074680;28;20252;-72
2024/01/17 02:28:27;;;;;;;34.63;16.55;;;-0.90;99.90;;;;;;5074774;28;20189;-81
2024/01/17 02:30:53;;;;;;;18.27;14.85;;;-0.90;99.90;;;;;;5075475;28;20740;-80
2024/01/17 02:33:19;;;;;;;22.87;15.57;;;-0.90;99.90;;;;;;5074185;28;20178;-80
2024/01/17 02:35:45;;;;;;;19.70;16.17;;;-0.90;99.90;;;;;;5074508;28;20225;-80
2024/01/17 02:38:11;;;;;;;20.33;15.32;;;-0.80;99.90;;;;;;5075317;28;20182;-73
2024/01/17 02:40:37;;;;;;;14.77;13.30;;;-0.80;99.90;;;;;;5074354;28;20227;-76
2024/01/17 02:43:04;;;;;;;17.93;15.37;;;-0.80;99.90;;;;;;5073858;28;20416;-76
2024/01/17 02:45:29;;;;;;;16.42;13.40;;;-0.80;99.90;;;;;;5072202;28;20777;-71
2024/01/17 02:47:55;;;;;;;17.43;14.50;;;-0.80;99.90;;;;;;5073862;28;20281;-71
2024/01/17 02:50:22;;;;;;;24.90;15.43;;;-0.80;99.90;;;;;;5075178;28;20174;-70
2024/01/17 02:52:47;;;;;;;13.75;12.07;;;-0.90;99.90;;;;;;5075046;28;20170;-71
2024/01/17 02:55:15;;;;;;;17.97;15.10;;;-0.70;99.90;;;;;;5074027;28;20198;-78
2024/01/17 02:57:41;;;;;;;17.63;12.05;;;-0.80;99.90;;;;;;5074965;28;20655;-70
2024/01/17 03:00:08;;;;;;;19.33;14.60;;;-0.80;99.90;;;;;;5074901;28;20231;-79
2024/01/17 03:02:38;;;;;;;19.20;14.98;;;-0.70;99.90;;;;;;5074494;28;20167;-70
2024/01/17 03:05:05;;;;;;;21.08;13.25;;;-0.60;99.90;;;;;;5073873;28;20202;-77
2024/01/17 03:07:31;;;;;;;19.73;14.43;;;-0.60;99.90;;;;;;5074378;28;20186;-71
2024/01/17 03:09:58;;;;;;;20.98;13.13;;;;;;;;;;5073755;28;20236;-81
2024/01/17 03:12:23;;;;;;;17.67;13.00;;;-0.50;99.90;;;;;;5074621;28;20162;-70
2024/01/17 03:14:49;;;;;;;21.17;13.17;;;-0.50;99.90;;;;;;5073603;28;20228;-80
2024/01/17 03:17:16;;;;;;;19.00;14.30;;;-0.50;99.90;;;;;;5074525;28;20174;-70
2024/01/17 03:19:48;;;;;;;21.05;14.60;;;-0.50;99.90;;;;;;5089610;28;20972;-80
2024/01/17 03:22:17;;;;;;;24.75;13.63;;;-0.40;99.90;;;;;;5074538;28;20212;-80
2024/01/17 03:24:45;;;;;;;16.95;13.65;;;-0.30;99.90;;;;;;5073573;28;20166;-80
2024/01/17 03:27:13;;;;;;;11.38;10.20;;;-0.40;99.90;;;;;;5074315;28;20253;-77
2024/01/17 03:29:39;;;;;;;19.20;12.95;;;-0.40;99.90;;;;;;5074235;28;20736;-80
2024/01/17 03:32:04;;;;;;;12.70;10.50;;;-0.30;99.90;;;;;;5074306;28;20174;-79
2024/01/17 03:34:30;;;;;;;17.60;12.33;;;-0.30;99.90;;;;;;5073714;28;20470;-74
2024/01/17 03:36:56;;;;;;;12.63;10.63;;;-0.30;99.90;;;;;;5073219;28;20173;-73
2024/01/17 03:39:21;;;;;;;22.60;14.67;;;-0.30;99.90;;;;;;5074101;28;20655;-79
2024/01/17 03:41:47;;;;;;;19.60;12.70;;;-0.20;99.90;;;;;;5074056;28;20170;-79
2024/01/17 03:44:13;;;;;;;12.20;9.60;;;-0.20;99.90;;;;;;5073759;28;20170;-78
2024/01/17 03:46:38;;;;;;;13.17;11.87;;;-0.20;99.90;;;;;;5073054;28;20519;-79
2024/01/17 03:49:04;;;;;;;21.70;13.60;;;-0.20;99.90;;;;;;5073909;28;20240;-71
2024/01/17 03:51:30;;;;;;;12.50;10.13;;;-0.20;99.90;;;;;;5073860;28;20647;-73
2024/01/17 03:53:56;;;;;;;14.00;11.07;;;-0.20;99.90;;;;;;5073742;28;20660;-79
2024/01/17 03:56:23;;;;;;;15.50;11.52;;;-0.20;99.90;;;;;;5072167;28;20190;-70
2024/01/17 03:58:48;;;;;;;11.30;10.18;;;-0.10;99.90;;;;;;5073826;28;20194;-71
2024/01/17 04:01:15;;;;;;;14.67;12.27;;;;;;;;;;5073818;28;20173;-72
2024/01/17 04:03:40;;;;;;;9.52;8.68;;;-0.20;99.90;;;;;;5073614;28;20558;-80
2024/01/17 04:06:06;;;;;;;19.33;11.50;;;-0.20;99.90;;;;;;5072724;28;20232;-79
2024/01/17 04:08:32;;;;;;;14.85;11.23;;;-0.20;99.90;;;;;;5073376;28;20214;-80
2024/01/17 04:10:58;;;;;;;13.53;11.37;;;-0.10;99.90;;;;;;5072889;28;20573;-78
2024/01/17 04:13:24;;;;;;;24.55;11.98;;;-0.10;99.90;;;;;;5073462;28;20890;-72
2024/01/17 04:15:50;;;;;;;14.63;10.70;;;-0.20;99.90;;;;;;5072443;28;20201;-72
2024/01/17 04:18:16;;;;;;;17.40;13.20;;;-0.10;99.90;;;;;;5073504;28;20550;-79
2024/01/17 04:20:42;;;;;;;10.27;9.00;;;-0.20;99.90;;;;;;5073574;28;20265;-77
2024/01/17 04:23:08;;;;;;;14.87;11.17;;;-0.10;99.90;;;;;;5073475;28;20191;-71
2024/01/17 04:25:35;;;;;;;21.52;11.80;;;-0.20;99.90;;;;;;5072436;28;20400;-74
2024/01/17 04:28:07;;;;;;;10.90;8.20;;;-0.20;99.90;;;;;;5073263;28;20202;-70
2024/01/17 04:30:33;;;;;;;9.80;8.80;;;-0.10;99.90;;;;;;5072796;28;20194;-79
2024/01/17 04:33:00;;;;;;;17.27;10.37;;;-0.10;99.90;;;;;;5071940;28;20673;-80
2024/01/17 04:35:26;;;;;;;12.68;11.35;;;-0.20;99.90;;;;;;5072325;28;20956;-80
2024/01/17 04:37:53;;;;;;;20.30;10.73;;;-0.20;99.90;;;;;;5073139;28;20198;-80
2024/01/17 04:40:18;;;;;;;10.25;9.35;;;-0.20;99.90;;;;;;5073180;28;20397;-79
2024/01/17 04:42:48;;;;;;;12.87;11.47;;;-0.20;99.90;;;;;;5072208;28;20524;-80
2024/01/17 04:45:17;;;;;;;10.95;10.05;;;-0.20;99.90;;;;;;5072434;28;20162;-69
2024/01/17 04:47:43;;;;;;;14.77;13.18;;;-0.20;99.90;;;;;;5072459;28;20193;-71
2024/01/17 04:50:10;;;;;;;15.02;10.43;;;-0.20;99.90;;;;;;5071788;28;20177;-75
2024/01/17 04:52:36;;;;;;;11.00;9.90;;;-0.20;99.90;;;;;;5071766;28;20646;-76
2024/01/17 04:55:02;;;;;;;13.80;11.13;;;-0.30;99.90;;;;;;5070843;28;20206;-70
2024/01/17 04:57:28;;;;;;;14.70;11.43;;;-0.30;99.90;;;;;;5075559;28;20626;-70
2024/01/17 04:59:53;;;;;;;13.43;11.98;;;-0.30;99.90;;;;;;5077251;28;20172;-78
2024/01/17 05:02:19;;;;;;;14.77;9.70;;;-0.30;99.90;;;;;;5076090;28;20249;-74
2024/01/17 05:04:45;;;;;;;15.33;13.73;;;-0.30;99.90;;;;;;5074985;28;20730;-70
2024/01/17 05:07:10;;;;;;;18.03;12.00;;;-0.30;99.90;;;;;;5076320;28;20231;-70
2024/01/17 05:09:37;;;;;;;18.07;11.97;;;-0.30;99.90;;;;;;5076941;28;20721;-70
2024/01/17 05:12:04;;;;;;;17.63;10.27;;;-0.30;99.90;;;;;;5076973;28;20169;-80
2024/01/17 05:14:29;;;;;;;14.30;11.77;;;-0.30;99.90;;;;;;5076503;28;20654;-73
2024/01/17 05:16:56;;;;;;;16.17;12.67;;;-0.30;99.90;;;;;;5076530;28;20166;-80
2024/01/17 05:19:22;;;;;;;13.77;11.40;;;-0.20;99.90;;;;;;5076767;28;20427;-80
2024/01/17 05:21:47;;;;;;;12.10;10.87;;;-0.30;99.90;;;;;;5076827;28;20170;-80
2024/01/17 05:24:13;;;;;;;15.50;12.60;;;-0.30;99.90;;;;;;5076656;28;20516;-80
2024/01/17 05:26:39;;;;;;;17.47;12.63;;;-0.30;99.90;;;;;;5075128;28;20178;-78
2024/01/17 05:29:06;;;;;;;15.70;11.90;;;;;;;;;;5076582;28;20190;-80
2024/01/17 05:31:31;;;;;;;18.33;11.48;;;-0.40;99.90;;;;;;5076606;28;20211;-80
2024/01/17 05:33:57;;;;;;;13.20;11.80;;;-0.40;99.90;;;;;;5075548;28;20279;-71
2024/01/17 05:36:23;;;;;;;15.20;12.63;;;-0.30;99.90;;;;;;5074201;28;20193;-80
2024/01/17 05:38:48;;;;;;;23.70;11.87;;;-0.40;99.90;;;;;;5076235;28;20182;-70
2024/01/17 05:41:14;;;;;;;16.77;13.37;;;-0.30;99.90;;;;;;5076451;28;20166;-70
2024/01/17 05:43:40;;;;;;;18.30;15.40;;;-0.30;99.90;;;;;;5075677;28;20623;-71
2024/01/17 05:46:05;;;;;;;14.03;11.83;;;-0.30;96.60;;;;;;5075426;28;20232;-71
2024/01/17 05:48:31;;;;;;;29.20;12.43;;;-0.30;94.40;;;;;;5076218;28;20542;-79
2024/01/17 05:50:57;;;;;;;18.70;13.17;;;-0.40;92.30;;;;;;5076249;28;20164;-75
2024/01/17 05:53:22;;;;;;;9.87;8.90;;;-0.40;87.50;;;;;;5076248;28;20169;-69
2024/01/17 05:55:48;;;;;;;14.70;13.03;;;-0.40;87.50;;;;;;5074130;28;20202;-73
2024/01/17 05:58:14;;;;;;;15.67;12.87;;;-0.40;87.50;;;;;;5076091;28;20685;-72
2024/01/17 06:00:40;;;;;;;24.98;12.25;;;-0.50;87.40;;;;;;5075939;28;20178;-72
2024/01/17 06:03:06;;;;;;;13.18;11.60;;;-0.50;87.40;;;;;;5075343;28;20167;-71
2024/01/17 06:05:31;;;;;;;18.57;13.93;;;-0.60;87.30;;;;;;5074973;28;20656;-79
2024/01/17 06:07:57;;;;;;;12.93;10.33;;;-0.60;87.30;;;;;;5075675;28;20193;-74
2024/01/17 06:10:25;;;;;;;14.10;10.87;;;-0.60;87.50;;;;;;5075891;28;20216;-71
2024/01/17 06:12:50;;;;;;;13.70;10.93;;;-0.60;87.30;;;;;;5075810;28;20174;-72
2024/01/17 06:15:17;;;;;;;14.60;12.37;;;-0.60;87.50;;;;;;5074901;28;20193;-81
2024/01/17 06:17:43;;;;;;;15.90;12.32;;;-0.60;87.50;;;;;;5075654;28;20174;-72
2024/01/17 06:20:12;;;;;;;19.73;13.98;;;-0.60;87.30;;;;;;5075382;28;20169;-74
2024/01/17 06:22:38;;;;;;;21.27;13.90;;;-0.60;78.40;;;;;;5075161;28;20170;-79
2024/01/17 06:25:06;;;;;;;19.57;12.23;;;-0.60;80.10;;;;;;5074704;28;20174;-80
2024/01/17 06:27:31;;;;;;;20.63;13.52;;;-0.70;68.80;;;;;;5075591;28;20166;-69
2024/01/17 06:29:57;;;;;;;16.47;12.60;;;-0.70;70.60;;;;;;5074322;28;20174;-72
2024/01/17 06:32:23;;;;;;;19.60;12.60;;;-0.70;68.80;;;;;;5075533;28;20170;-70
2024/01/17 06:34:49;;;;;;;18.33;12.50;;;-0.70;64.60;;;;;;5074217;28;20194;-72
2024/01/17 06:37:15;;;;;;;15.90;12.00;;;-0.60;64.20;;;;;;5075255;28;20166;-79
2024/01/17 06:39:41;;;;;;;22.98;14.63;;;-0.60;64.60;;;;;;5074557;28;20178;-70
2024/01/17 06:42:06;;;;;;;18.77;14.37;;;-0.60;61.50;;;;;;5075252;28;20173;-80
2024/01/17 06:44:32;;;;;;;14.50;10.87;;;-0.70;57.80;;;;;;5074418;28;20400;-74
2024/01/17 06:46:58;;;;;;;19.93;11.40;;;-0.70;53.40;;;;;;5075028;28;20223;-73
2024/01/17 06:49:23;;;;;;;16.43;13.03;;;-0.80;50.90;;;;;;5073922;28;20190;-78
2024/01/17 06:51:49;;;;;;;15.60;13.30;;;-0.80;52.00;;;;;;5075037;28;20627;-80
2024/01/17 06:54:15;;;;;;;17.45;12.95;;;-0.70;50.90;;;;;;5075110;28;20343;-81
2024/01/17 06:56:41;;;;;;;16.80;13.17;;;-0.70;48.00;;;;;;5073920;28;20205;-74
2024/01/17 06:59:07;;;;;;;15.80;12.40;;;-0.70;42.10;;;;;;5074127;28;20478;-80
2024/01/17 07:01:35;;;;;;;14.07;12.57;;;-0.80;41.90;;;;;;5074964;28;20262;-71
2024/01/17 07:04:02;;;;;;;16.08;11.68;;;-0.70;39.60;;;;;;5074728;28;20252;-71
2024/01/17 07:06:27;;;;;;;14.50;11.18;;;-0.70;33.90;;;;;;5073704;28;20197;-72
2024/01/17 07:08:53;;;;;;;11.57;9.57;;;-0.80;30.50;;;;;;5074615;28;20186;-71
2024/01/17 07:11:19;;;;;;;13.63;12.23;;;-0.70;27.90;;;;;;5074477;28;20166;-79
2024/01/17 07:13:44;;;;;;;17.40;11.93;;;-0.70;26.10;;;;;;5074726;28;20167;-70
2024/01/17 07:16:15;;;;;;;15.50;12.00;;;-0.70;26.40;;;;;;5072844;28;20274;-72
2024/01/17 07:18:41;;;;;;;14.63;11.88;;;-0.80;23.50;;;;;;5074076;28;20259;-70
2024/01/17 07:21:07;;;;;;;21.93;12.53;;;-0.70;25.10;;;;;;5073039;28;20627;-80
2024/01/17 07:23:38;;;;;;;20.92;10.65;;;-0.70;23.60;;;;;;5074532;28;20818;-75
2024/01/17 07:26:04;;;;;;;15.73;12.43;;;-0.70;23.70;;;;;;5073740;28;20204;-79
2024/01/17 07:28:29;;;;;;;15.33;12.90;;;-0.60;24.70;;;;;;5074091;28;20230;-72
2024/01/17 07:30:55;;;;;;;19.13;12.47;;;-0.70;25.00;;;;;;5074100;28;20897;-71
2024/01/17 07:33:21;;;;;;;17.80;11.33;;;-0.60;25.50;;;;;;5074179;28;20404;-80
2024/01/17 07:35:46;;;;;;;14.70;12.90;;;-0.60;26.30;;;;;;5072771;28;20196;-79
2024/01/17 07:38:12;;;;;;;12.00;8.43;;;-0.60;22.20;;;;;;5073730;28;20190;-80
2024/01/17 07:40:38;;;;;;;15.80;12.07;;;-0.60;34.00;;;;;;5074145;28;20167;-70
2024/01/17 07:43:04;;;;;;;18.93;11.53;;;-0.60;27.30;;;;;;5074042;28;20163;-74
2024/01/17 07:45:30;;;;;;;13.85;11.80;;;-0.60;24.10;;;;;;5073030;28;20162;-78
2024/01/17 07:47:56;;;;;;;10.37;9.33;;;-0.60;23.60;;;;;;5072735;28;20209;-73
2024/01/17 07:50:23;;;;;;;20.23;12.67;;;-0.60;23.70;;;;;;5072940;28;20319;-76
2024/01/17 07:52:48;;;;;;;16.27;9.98;;;-0.50;21.30;;;;;;5073845;28;20236;-71
2024/01/17 07:55:15;;;;;;;20.10;11.03;;;-0.50;18.10;;;;;;5072557;28;20233;-78
2024/01/17 07:57:41;;;;;;;10.80;8.95;;;-0.50;14.30;;;;;;5073249;28;20182;-71
2024/01/17 08:00:07;;;;;;;16.20;9.47;;;-0.50;10.90;;;;;;5073692;28;20181;-74
2024/01/17 08:02:33;;;;;;;12.63;9.40;;;-0.50;5.90;;;;;;5072470;28;20159;-77
2024/01/17 08:04:58;;;;;;;13.90;11.53;;;-0.50;3.40;;;;;;5072791;28;20186;-72
2024/01/17 08:07:25;;;;;;;12.13;9.23;;;-0.50;4.00;;;;;;5073407;28;20264;-77
2024/01/17 08:09:54;;;;;;;12.90;10.68;;;-0.40;1.10;;;;;;5072299;28;20539;-72
2024/01/17 08:12:19;;;;;;;10.70;9.10;;;-0.40;1.00;;;;;;5073514;28;20662;-70
2024/01/17 08:14:46;;;;;;;9.83;8.90;;;-0.40;1.00;;;;;;5071745;28;20198;-79
2024/01/17 08:17:12;;;;;;;13.45;10.70;;;-0.40;1.00;;;;;;5073443;28;20594;-80
2024/01/17 08:19:38;;;;;;;12.97;10.30;;;-0.30;1.00;;;;;;5073192;28;20221;-79
2024/01/17 08:22:04;;;;;;;12.43;10.30;;;-0.30;1.00;;;;;;5073544;28;20162;-74
2024/01/17 08:24:30;;;;;;;9.63;7.72;;;-0.30;1.00;;;;;;5068462;28;20178;-76
2024/01/17 08:26:56;;;;;;;12.50;9.90;;;-0.30;1.00;;;;;;5053002;28;20166;-78
2024/01/17 08:29:22;;;;;;;13.57;11.18;;;-0.30;1.00;;;;;;5053066;28;20230;-71
2024/01/17 08:31:49;;;;;;;14.93;7.95;;;-0.20;1.00;;;;;;5052753;28;20171;-71
2024/01/17 08:34:14;;;;;;;19.20;8.98;;;-0.20;1.00;;;;;;5053027;28;20223;-78
2024/01/17 08:36:40;;;;;;;12.43;9.67;;;-0.20;1.00;;;;;;5052265;28;20194;-79
2024/01/17 08:39:06;;;;;;;9.77;8.17;;;-0.10;1.00;;;;;;5053102;28;20437;-72
2024/01/17 08:41:33;;;;;;;13.30;10.10;;;-0.10;1.00;;;;;;5053080;28;20400;-79
2024/01/17 08:44:01;;;;;;;11.13;8.40;;;-0.10;1.00;;;;;;5053021;28;20305;-72
2024/01/17 08:46:26;;;;;;;10.63;9.30;;;-0.10;1.00;;;;;;5052204;28;20620;-74
2024/01/17 08:48:52;;;;;;;12.07;10.80;;;-0.10;1.00;;;;;;5053087;28;20226;-72
2024/01/17 08:51:21;;;;;;;14.83;10.03;;;-0.10;1.00;;;;;;5052394;28;20662;-81
2024/01/17 08:53:47;;;;;;;9.70;8.77;;;-0.10;1.00;;;;;;5052999;28;20536;-74
2024/01/17 08:56:14;;;;;;;10.85;8.75;;;0.20;1.00;;;;;;5052060;28;20517;-80
2024/01/17 08:58:42;;;;;;;10.18;8.95;;;0.00;1.00;;;;;;5051605;28;20556;-72
2024/01/17 09:01:08;;;;;;;13.30;9.82;;;0.00;1.00;;;;;;5053052;28;20644;-79
2024/01/17 09:03:34;;;;;;;12.13;9.82;;;0.00;1.00;;;;;;5051979;28;20171;-79
2024/01/17 09:06:00;;;;;;;16.85;10.20;;;0.00;1.00;;;;;;5051924;28;20228;-80
2024/01/17 09:08:26;;;;;;;8.40;7.50;;;0.00;1.00;;;;;;5052135;28;20194;-73
2024/01/17 09:10:52;;;;;;;10.37;8.93;;;0.00;1.00;;;;;;5052932;28;20404;-81
2024/01/17 09:13:18;;;;;;;8.07;7.17;;;0.10;1.00;;;;;;5051811;28;20417;-74
2024/01/17 09:15:43;;;;;;;13.23;9.47;;;0.00;1.00;;;;;;5051624;28;20656;-80
2024/01/17 09:18:09;;;;;;;11.97;9.40;;;0.00;1.00;;;;;;5052730;28;20187;-73
2024/01/17 09:20:35;;;;;;;10.50;7.63;;;0.10;1.00;;;;;;5052734;28;20170;-71
2024/01/17 09:23:00;;;;;;;10.23;8.00;;;0.20;1.00;;;;;;5051554;28;20258;-71
2024/01/17 09:25:26;;;;;;;8.50;7.70;;;0.30;1.00;;;;;;5051139;28;20174;-71
2024/01/17 09:27:52;;;;;;;11.20;8.20;;;0.30;1.00;;;;;;5052581;28;20195;-81
2024/01/17 09:30:17;;;;;;;9.60;8.00;;;0.20;1.00;;;;;;5052680;28;20167;-72
2024/01/17 09:32:47;;;;;;;8.77;8.07;;;0.30;1.00;;;;;;5052862;28;20185;-80
2024/01/17 09:35:16;;;;;;;9.37;8.53;;;0.30;1.00;;;;;;5051718;28;20659;-74
2024/01/17 09:37:41;;;;;;;8.60;7.80;;;0.30;1.00;;;;;;5052692;28;20451;-80
2024/01/17 09:40:08;;;;;;;8.80;8.10;;;0.30;1.00;;;;;;5051219;28;20261;-79
2024/01/17 09:42:34;;;;;;;12.80;8.38;;;0.20;1.00;;;;;;5051528;28;20175;-81
2024/01/17 09:45:04;;;;;;;13.73;8.35;;;0.10;1.00;;;;;;5055571;28;20202;-80
2024/01/17 09:47:33;;;;;;;12.50;9.27;;;0.10;1.00;;;;;;5056292;28;20175;-77
2024/01/17 09:50:00;;;;;;;8.45;7.65;;;0.00;1.00;;;;;;5056261;28;20170;-71
2024/01/17 09:52:25;;;;;;;11.40;8.15;;;0.00;1.00;;;;;;5056233;28;20167;-79
2024/01/17 09:54:52;;;;;;;9.27;7.53;;;0.00;1.00;;;;;;5055221;28;20198;-72
2024/01/17 09:57:33;;;;;;;7.35;6.70;;;0.00;1.00;;;;;;5056059;28;20170;-76
2024/01/17 10:00:09;;;;;;;13.57;8.43;;;-0.10;1.00;;;;;;5054809;28;20171;-78
2024/01/17 10:02:39;;;;;;;9.57;8.18;;;-0.10;1.00;;;;;;5055493;28;20209;-71
2024/01/17 10:05:08;;;;;;;9.38;7.60;;;0.00;1.00;;;;;;5055178;28;20640;-72
2024/01/17 10:07:33;;;;;;;9.65;7.40;;;0.00;1.00;;;;;;5055526;28;20182;-71
2024/01/17 10:09:59;;;;;;;9.03;8.13;;;0.00;1.00;;;;;;5055982;28;20686;-81
2024/01/17 10:12:25;;;;;;;9.37;7.27;;;0.00;1.00;;;;;;5055370;28;20171;-80
2024/01/17 10:14:51;;;;;;;8.47;7.57;;;0.00;1.00;;;;;;5055689;28;20830;-77
2024/01/17 10:17:16;;;;;;;8.77;7.73;;;-0.10;1.00;;;;;;5067389;28;20180;-81
2024/01/17 10:19:42;;;;;;;9.53;6.67;;;0.00;1.00;;;;;;5074357;28;20190;-71
2024/01/17 10:22:11;;;;;;;14.00;8.07;;;0.00;1.00;;;;;;5074953;28;20245;-78
2024/01/17 10:24:38;;;;;;;8.52;7.82;;;-0.10;1.00;;;;;;5074609;28;20193;-72
2024/01/17 10:27:06;;;;;;;9.30;7.72;;;0.00;1.00;;;;;;5075603;28;20170;-70
2024/01/17 10:29:32;;;;;;;11.80;7.97;;;0.00;1.00;;;;;;5074289;28;20584;-72
2024/01/17 10:32:02;;;;;;;8.07;7.32;;;-0.10;1.00;;;;;;5075510;28;20261;-78
2024/01/17 10:34:31;;;;;;;6.35;5.75;;;-0.20;1.00;;;;;;5074983;28;20653;-77
2024/01/17 10:36:57;;;;;;;9.48;6.65;;;-0.10;1.00;;;;;;5074803;28;20185;-75
2024/01/17 10:39:28;;;;;;;8.73;7.82;;;-0.10;1.00;;;;;;5075053;28;20186;-81
2024/01/17 10:41:56;;;;;;;10.27;7.90;;;-0.10;1.00;;;;;;5075365;28;20159;-73
2024/01/17 10:44:22;;;;;;;8.73;7.00;;;0.00;1.00;;;;;;5074022;28;20247;-73
2024/01/17 10:46:50;;;;;;;8.35;6.97;;;0.00;1.00;;;;;;5074324;28;20201;-76
2024/01/17 10:49:20;;;;;;;11.73;7.38;;;0.00;1.00;;;;;;5074996;28;20197;-71
2024/01/17 10:52:11;;;;;;;7.30;6.65;;;0.00;1.00;;;;;;5075254;28;20384;-81
2024/01/17 10:54:46;;;;;;;10.80;8.20;;;-0.10;1.00;;;;;;5066961;28;20178;-71
2024/01/17 10:57:14;;;;;;;27.77;9.30;;;-0.10;1.00;;;;;;5070945;28;20200;-78
2024/01/17 10:59:49;;;;;;;8.90;8.00;;;-0.10;1.00;;;;;;5055943;28;20317;-81
2024/01/17 11:02:22;;;;;;;9.10;7.45;;;-0.10;1.00;;;;;;5055074;28;20159;-71
2024/01/17 11:05:12;;;;;;;8.27;7.40;;;-0.10;1.00;;;;;;5053880;28;20214;-73
2024/01/17 11:07:40;;;;;;;9.82;7.50;;;0.00;1.00;;;;;;5054538;28;20205;-72
2024/01/17 11:10:07;;;;;;;8.68;7.53;;;-0.10;1.00;;;;;;5054738;28;20167;-81
2024/01/17 11:12:37;;;;;;;9.65;8.63;;;0.00;1.00;;;;;;5054818;28;20209;-73
2024/01/17 11:15:04;;;;;;;14.52;8.20;;;0.00;1.00;;;;;;5053659;28;20194;-81
2024/01/17 11:17:35;;;;;;;6.57;5.93;;;0.00;1.00;;;;;;5053892;28;20167;-72
2024/01/17 11:20:08;;;;;;;10.05;6.57;;;0.00;1.00;;;;;;5054295;28;20195;-76
2024/01/17 11:22:38;;;;;;;10.90;8.00;;;0.00;1.00;;;;;;5054602;28;20175;-71
2024/01/17 11:25:25;;;;;;;8.95;8.00;;;-0.10;1.00;;;;;;5053545;28;20203;-81
2024/01/17 11:28:14;;;;;;;8.82;7.40;;;-0.10;1.00;;;;;;5055358;28;20230;-73
2024/01/17 11:31:05;;;;;;;8.57;7.50;;;0.00;1.00;;;;;;5054175;28;20170;-74
2024/01/17 11:33:32;;;;;;;11.15;7.55;;;0.10;1.00;;;;;;5054302;28;20163;-82
2024/01/17 11:35:58;;;;;;;7.55;6.53;;;0.10;1.00;;;;;;5053329;28;20191;-71
2024/01/17 11:38:24;;;;;;;11.88;6.85;;;0.10;1.00;;;;;;5053424;28;20190;-76
2024/01/17 11:40:53;;;;;;;11.10;6.93;;;0.10;1.00;;;;;;5055033;28;20567;-73
2024/01/17 11:43:22;;;;;;;6.45;5.95;;;0.10;1.00;;;;;;5053947;28;20169;-77
2024/01/17 11:45:50;;;;;;;12.85;8.45;;;0.00;1.00;;;;;;5052963;28;20185;-80
2024/01/17 11:48:22;;;;;;;10.93;7.80;;;0.10;1.00;;;;;;5054012;28;20640;-77
2024/01/17 11:51:11;;;;;;;7.53;6.68;;;0.10;1.00;;;;;;5054091;28;20171;-74
2024/01/17 11:53:40;;;;;;;13.13;7.97;;;0.10;1.00;;;;;;5052882;28;20175;-74
2024/01/17 11:56:08;;;;;;;8.32;7.63;;;0.10;1.00;;;;;;5052295;28;20199;-72
2024/01/17 11:58:38;;;;;;;9.65;7.75;;;0.10;1.00;;;;;;5053830;28;20183;-73
2024/01/17 12:01:06;;;;;;;13.25;8.40;;;0.10;1.00;;;;;;5053819;28;20234;-76
2024/01/17 12:03:32;;;;;;;9.18;7.82;;;0.00;1.00;;;;;;5052342;28;20531;-81
2024/01/17 12:05:59;;;;;;;8.67;7.73;;;0.00;1.00;;;;;;5052584;28;20261;-73
2024/01/17 12:08:25;;;;;;;9.85;7.90;;;0.10;1.00;;;;;;5053662;28;20191;-74
2024/01/17 12:10:55;;;;;;;13.00;7.10;;;0.10;1.00;;;;;;5053812;28;20193;-81
2024/01/17 12:13:24;;;;;;;9.32;8.20;;;0.00;1.00;;;;;;5053555;28;20536;-75
2024/01/17 12:16:00;;;;;;;12.30;7.60;;;0.20;1.00;;;;;;5051932;28;20752;-76
2024/01/17 12:18:26;;;;;;;7.70;6.65;;;0.10;1.00;;;;;;5052315;28;20198;-73
2024/01/17 12:20:55;;;;;;;9.43;7.47;;;0.10;1.00;;;;;;5053529;28;20692;-72
2024/01/17 12:23:24;;;;;;;8.23;7.50;;;0.10;1.00;;;;;;5053409;28;20171;-79
2024/01/17 12:25:52;;;;;;;6.38;5.82;;;0.10;1.00;;;;;;5052497;28;20215;-81
2024/01/17 12:28:23;;;;;;;7.72;6.10;;;0.10;1.00;;;;;;5053357;28;20184;-82
2024/01/17 12:30:56;;;;;;;7.85;7.15;;;0.00;1.00;;;;;;5053373;28;20246;-81
2024/01/17 12:33:23;;;;;;;8.23;7.40;;;0.10;1.00;;;;;;5053464;28;20654;-73
2024/01/17 12:35:53;;;;;;;10.50;7.53;;;0.20;1.00;;;;;;5051565;28;20281;-80
2024/01/17 12:38:19;;;;;;;9.60;8.30;;;0.20;1.00;;;;;;5053166;28;20187;-73
2024/01/17 12:40:46;;;;;;;11.17;7.03;;;0.20;1.00;;;;;;5052161;28;20257;-73